Time;durP1;ratioP1;P1;durP2;ratioP2;P2;SDS_P1;SDS_P2;PMS_P1;PMS_P2;Temp;Humidity;BMP_temperature;BMP_pressure;BME280_temperature;BME280_humidity;BME280_pressure;Samples;Min_cycle;Max_cycle;Signal;HPM_P1;HPM_P2
2022/06/10 00:00:21;;;;;;;;;;;;;;;;;;2058653;28;20373;-86
2022/06/10 00:01:22;;;;;;;;;;;;;;;;;;2058593;28;19958;-86
2022/06/10 00:02:22;;;;;;;;;;;;;;;;;;2058317;28;19937;-85
2022/06/10 00:03:24;;;;;;;;;;;;;;;;;;2049952;29;20311;-85
2022/06/10 00:04:24;;;;;;;;;;;;;;;;;;2050122;28;19989;-86
2022/06/10 00:05:26;;;;;;;;;;;;;;;;;;2049724;29;19942;-85
2022/06/10 00:06:26;;;;;;;;;;;;;;;;;;2049901;28;19925;-86
2022/06/10 00:07:33;;;;;;;;;;;;;;;;;;2058093;28;19919;-86
2022/06/10 00:08:35;;;;;;;;;;;;;;;;;;2049689;29;19915;-85
2022/06/10 00:09:38;;;;;;;;;;;;;;;;;;2049996;28;19915;-85
2022/06/10 00:10:39;;;;;;;;;;;;;;;;;;2049818;29;20352;-85
2022/06/10 00:11:39;;;;;;;;;;;;;;;;;;2041865;29;19915;-85
2022/06/10 00:12:39;;;;;;;;;;;;;;;;;;2041891;29;20288;-85
2022/06/10 00:13:41;;;;;;;;;;;;;;;;;;2049993;29;20202;-85
2022/06/10 00:14:42;;;;;;;;;;;;;;;;;;2058130;28;20016;-85
2022/06/10 00:15:43;;;;;;;;;;;;;;;;;;2058396;28;20335;-85
2022/06/10 00:16:43;;;;;;;;;;;;;;;;;;2058304;28;20009;-86
2022/06/10 00:17:43;;;;;;;;;;;;;;;;;;2058255;28;19918;-85
2022/06/10 00:18:44;;;;;;;;;;;;;;;;;;2049799;29;19961;-86
2022/06/10 00:19:44;;;;;;;;;;;;;;;;;;2049856;29;19914;-86
2022/06/10 00:20:47;;;;;;;;;;;;;;;;;;2049502;29;19924;-84
2022/06/10 00:21:48;;;;;;;;;;;;;;;;;;2050183;28;19914;-85
2022/06/10 00:22:48;;;;;;;;;;;;;;;;;;2058195;28;19914;-84
2022/06/10 00:23:49;;;;;;;;;;;;;;;;;;2058260;28;19914;-84
2022/06/10 00:24:51;;;;;;;;;;;;;;;;;;2058313;28;20113;-85
2022/06/10 00:25:51;;;;;;;;;;;;;;;;;;2058302;28;20005;-85
2022/06/10 00:26:54;;;;;;;;;;;;;;;;;;2058207;28;20004;-84
2022/06/10 00:27:54;;;;;;;;;;;;;;;;;;2058294;28;19926;-84
2022/06/10 00:28:55;;;;;;;;;;;;;;;;;;2058067;28;20012;-85
2022/06/10 00:29:55;;;;;;;;;;;;;;;;;;2049706;29;19914;-84
2022/06/10 00:30:55;;;;;;;;;;;;;;;;;;2049786;29;19921;-85
2022/06/10 00:31:55;;;;;;;;;;;;;;;;;;2058135;28;19952;-85
2022/06/10 00:32:57;;;;;;;;;;;;;;;;;;2058095;28;20379;-84
2022/06/10 00:33:57;;;;;;;;;;;;;;;;;;2058192;28;19957;-85
2022/06/10 00:34:57;;;;;;;;;;;;;;;;;;2049926;29;20266;-85
2022/06/10 00:35:58;;;;;;;;;;;;;;;;;;2041666;29;20364;-86
2022/06/10 00:36:58;;;;;;;;;;;;;;;;;;2049728;29;19988;-86
2022/06/10 00:37:59;;;;;;;;;;;;;;;;;;2057601;28;20009;-86
2022/06/10 00:38:59;;;;;;;;;;;;;;;;;;2057862;28;20407;-85
2022/06/10 00:39:59;;;;;;;;;;;;;;;;;;2058116;28;19956;-85
2022/06/10 00:41:00;;;;;;;;;;;;;;;;;;2058337;28;19918;-86
2022/06/10 00:42:01;;;;;;;;;;;;;;;;;;2049563;29;20295;-85
2022/06/10 00:43:01;;;;;;;;;;;;;;;;;;2041642;29;19929;-85
2022/06/10 00:44:02;;;;;;;;;;;;;;;;;;2049651;29;19921;-85
2022/06/10 00:45:03;;;;;;;;;;;;;;;;;;2049590;29;20001;-85
2022/06/10 00:46:03;;;;;;;;;;;;;;;;;;2049640;29;19915;-84
2022/06/10 00:47:05;;;;;;;;;;;;;;;;;;2058136;28;20383;-85
2022/06/10 00:48:07;;;;;;;;;;;;;;;;;;2049474;29;20344;-85
2022/06/10 00:49:07;;;;;;;;;;;;;;;;;;2049790;28;19926;-86
2022/06/10 00:50:22;;;;;;;;;;;;;;;;;;2049580;29;19914;-85
2022/06/10 00:51:22;;;;;;;;;;;;;;;;;;2051499;28;19929;-86
2022/06/10 00:52:29;;;;;;;;;;;;;;;;;;2057997;28;20000;-86
2022/06/10 00:53:32;;;;;;;;;;;;;;;;;;2058113;28;20337;-87
2022/06/10 00:54:38;;;;;;;;;;;;;;;;;;2049397;29;19949;-86
2022/06/10 00:55:39;;;;;;;;;;;;;;;;;;2041997;29;19918;-88
2022/06/10 00:56:41;;;;;;;;;;;;;;;;;;2049618;28;20241;-86
2022/06/10 00:57:43;;;;;;;;;;;;;;;;;;2058084;28;19929;-86
2022/06/10 00:58:46;;;;;;;;;;;;;;;;;;2058067;28;19914;-86
2022/06/10 00:59:46;;;;;;;;;;;;;;;;;;2058018;28;20354;-87
2022/06/10 01:00:47;;;;;;;;;;;;;;;;;;2049517;29;19915;-88
2022/06/10 01:01:49;;;;;;;;;;;;;;;;;;2049559;29;19918;-86
2022/06/10 01:02:49;;;;;;;;;;;;;;;;;;2058037;28;19990;-87
2022/06/10 01:03:50;;;;;;;;;;;;;;;;;;2058105;28;20049;-87
2022/06/10 01:04:51;;;;;;;;;;;;;;;;;;2057911;28;19992;-87
2022/06/10 01:05:52;;;;;;;;;;;;;;;;;;2049444;29;20433;-87
2022/06/10 01:06:52;;;;;;;;;;;;;;;;;;2049566;29;19914;-84
2022/06/10 01:07:56;;;;;;;;;;;;;;;;;;2056794;28;20334;-84
2022/06/10 01:08:58;;;;;;;;;;;;;;;;;;2057845;28;19922;-86
2022/06/10 01:09:59;;;;;;;;;;;;;;;;;;2058028;28;19997;-86
2022/06/10 01:10:59;;;;;;;;;;;;;;;;;;2049352;29;20324;-86
2022/06/10 01:12:05;;;;;;;;;;;;;;;;;;2049370;29;19914;-87
2022/06/10 01:13:13;;;;;;;;;;;;;;;;;;2049337;29;20282;-87
2022/06/10 01:14:20;;;;;;;;;;;;;;;;;;2050556;28;19947;-88
2022/06/10 01:15:29;;;;;;;;;;;;;;;;;;2057866;28;19925;-87
2022/06/10 01:16:32;;;;;;;;;;;;;;;;;;2058125;28;19925;-87
2022/06/10 01:17:39;;;;;;;;;;;;;;;;;;2057703;28;19918;-87
2022/06/10 01:18:42;;;;;;;;;;;;;;;;;;2057908;28;20001;-87
2022/06/10 01:19:48;;;;;;;;;;;;;;;;;;2057733;28;19914;-87
2022/06/10 01:21:07;;;;;;;;;;;;;;;;;;2057918;28;20353;-87
2022/06/10 01:22:17;;;;;;;;;;;;;;;;;;2049377;29;19925;-87
2022/06/10 01:23:36;;;;;;;;;;;;;;;;;;2050460;28;20269;-88
2022/06/10 01:24:42;;;;;;;;;;;;;;;;;;2049102;29;19934;-88
2022/06/10 01:25:42;;;;;;;;;;;;;;;;;;2050029;28;19929;-88
2022/06/10 01:28:40;;;;;;;;;;;;;;;;;;2057710;28;19982;-88
2022/06/10 01:29:49;;;;;;;;;;;;;;;;;;2053558;28;20017;-86
2022/06/10 01:30:55;;;;;;;;;;;;;;;;;;2049216;29;20303;-87
2022/06/10 01:32:18;;;;;;;;;;;;;;;;;;2049831;28;20002;-87
2022/06/10 01:33:37;;;;;;;;;;;;;;;;;;2047086;28;19977;-88
2022/06/10 01:34:42;;;;;;;;;;;;;;;;;;2057714;28;19914;-88
2022/06/10 01:35:52;;;;;;;;;;;;;;;;;;2057874;28;20339;-88
2022/06/10 01:36:57;;;;;;;;;;;;;;;;;;2057803;28;19918;-87
2022/06/10 01:38:00;;;;;;;;;;;;;;;;;;2058152;28;19953;-88
2022/06/10 01:39:02;;;;;;;;;;;;;;;;;;2057590;28;19972;-88
2022/06/10 01:40:14;;;;;;;;;;;;;;;;;;2057663;28;19914;-88
2022/06/10 01:41:33;;;;;;;;;;;;;;;;;;2057862;28;19910;-89
2022/06/10 01:42:43;;;;;;;;;;;;;;;;;;2057717;28;20295;-88
2022/06/10 01:44:02;;;;;;;;;;;;;;;;;;2057794;28;19914;-89
2022/06/10 01:45:09;;;;;;;;;;;;;;;;;;2049214;29;20300;-88
2022/06/10 01:46:10;;;;;;;;;;;;;;;;;;2050148;28;19918;-88
2022/06/10 01:47:17;;;;;;;;;;;;;;;;;;2057587;28;19929;-89
2022/06/10 01:48:32;;;;;;;;;;;;;;;;;;2057686;28;19926;-89
2022/06/10 01:49:37;;;;;;;;;;;;;;;;;;2057696;28;19914;-88
2022/06/10 01:50:56;;;;;;;;;;;;;;;;;;2057583;28;19925;-88
2022/06/10 01:52:04;;;;;;;;;;;;;;;;;;2057602;28;19945;-89
2022/06/10 01:53:07;;;;;;;;;;;;;;;;;;2057529;28;19918;-88
2022/06/10 01:54:13;;;;;;;;;;;;;;;;;;2049376;29;19997;-88
2022/06/10 01:55:13;;;;;;;;;;;;;;;;;;2041821;29;19922;-88
2022/06/10 01:56:17;;;;;;;;;;;;;;;;;;2049237;29;19924;-88
2022/06/10 01:57:47;;;;;;;;;;;;;;;;;;2057461;28;19928;-89
2022/06/10 01:59:00;;;;;;;;;;;;;;;;;;2032357;29;20008;-90
2022/06/10 02:00:03;;;;;;;;;;;;;;;;;;2051017;28;19958;-89
2022/06/10 02:01:07;;;;;;;;;;;;;;;;;;2057673;28;19948;-89
2022/06/10 02:02:27;;;;;;;;;;;;;;;;;;2049083;29;19918;-88
2022/06/10 02:03:34;;;;;;;;;;;;;;;;;;2051863;28;19914;-88
2022/06/10 02:04:41;;;;;;;;;;;;;;;;;;2057609;28;20355;-89
2022/06/10 02:05:43;;;;;;;;;;;;;;;;;;2049039;29;19918;-89
2022/06/10 02:06:46;;;;;;;;;;;;;;;;;;2041402;29;20332;-89
2022/06/10 02:07:52;;;;;;;;;;;;;;;;;;2049222;28;19915;-89
2022/06/10 02:08:58;;;;;;;;;;;;;;;;;;2057308;28;20451;-89
2022/06/10 02:10:05;;;;;;;;;;;;;;;;;;2048899;29;20439;-88
2022/06/10 02:11:12;;;;;;;;;;;;;;;;;;2049853;28;20000;-89
2022/06/10 02:12:17;;;;;;;;;;;;;;;;;;2049117;29;19914;-88
2022/06/10 02:13:21;;;;;;;;;;;;;;;;;;2049371;28;19919;-88
2022/06/10 02:14:24;;;;;;;;;;;;;;;;;;2057066;28;19918;-88
2022/06/10 02:15:37;;;;;;;;;;;;;;;;;;2057030;28;19925;-89
2022/06/10 02:16:38;;;;;;;;;;;;;;;;;;2057214;28;20410;-89
2022/06/10 02:17:41;;;;;;;;;;;;;;;;;;2057263;28;19977;-89
2022/06/10 02:18:59;;;;;;;;;;;;;;;;;;2057413;28;19918;-88
2022/06/10 02:20:00;;;;;;;;;;;;;;;;;;2059349;28;19922;-88
2022/06/10 02:21:05;;;;;;;;;;;;;;;;;;2059736;28;19942;-87
2022/06/10 02:22:19;;;;;;;;;;;;;;;;;;2060782;28;19914;-88
2022/06/10 02:23:23;;;;;;;;;;;;;;;;;;2060455;28;20069;-88
2022/06/10 02:24:26;;;;;;;;;;;;;;;;;;2059490;28;19914;-88
2022/06/10 02:25:32;;;;;;;;;;;;;;;;;;2048996;29;19921;-88
2022/06/10 02:26:34;;;;;;;;;;;;;;;;;;2048812;29;19918;-89
2022/06/10 02:27:41;;;;;;;;;;;;;;;;;;2049041;28;19915;-90
2022/06/10 02:28:44;;;;;;;;;;;;;;;;;;2057259;28;19933;-90
2022/06/10 02:29:55;;;;;;;;;;;;;;;;;;2048936;29;19920;-89
2022/06/10 02:31:00;;;;;;;;;;;;;;;;;;2041996;29;21778;-88
2022/06/10 02:32:01;;;;;;;;;;;;;;;;;;2049403;28;19914;-88
2022/06/10 02:33:02;;;;;;;;;;;;;;;;;;2056704;28;19933;-88
2022/06/10 02:34:06;;;;;;;;;;;;;;;;;;2057138;28;19989;-88
2022/06/10 02:35:08;;;;;;;;;;;;;;;;;;2048779;29;19929;-89
2022/06/10 02:36:11;;;;;;;;;;;;;;;;;;2041163;29;19914;-89
2022/06/10 02:37:19;;;;;;;;;;;;;;;;;;2041136;29;20212;-89
2022/06/10 02:38:40;;;;;;;;;;;;;;;;;;2041904;29;20312;-89
2022/06/10 02:39:45;;;;;;;;;;;;;;;;;;2027372;29;19915;-89
2022/06/10 02:41:05;;;;;;;;;;;;;;;;;;2053844;28;20364;-90
2022/06/10 02:42:13;;;;;;;;;;;;;;;;;;2048663;29;20287;-88
2022/06/10 02:43:18;;;;;;;;;;;;;;;;;;2041686;29;19981;-88
2022/06/10 02:44:30;;;;;;;;;;;;;;;;;;2049594;28;20328;-88
2022/06/10 02:45:30;;;;;;;;;;;;;;;;;;2048918;29;20359;-90
2022/06/10 02:46:34;;;;;;;;;;;;;;;;;;2048845;29;19915;-89
2022/06/10 02:47:55;;;;;;;;;;;;;;;;;;2056837;28;19925;-89
2022/06/10 02:49:01;;;;;;;;;;;;;;;;;;2057289;28;19925;-88
2022/06/10 02:50:01;;;;;;;;;;;;;;;;;;2057190;28;19914;-88
2022/06/10 02:51:02;;;;;;;;;;;;;;;;;;2048544;29;19925;-88
2022/06/10 02:52:03;;;;;;;;;;;;;;;;;;2048490;29;19923;-88
2022/06/10 02:53:03;;;;;;;;;;;;;;;;;;2057192;28;19925;-88
2022/06/10 02:54:06;;;;;;;;;;;;;;;;;;2057321;28;19914;-88
2022/06/10 02:55:18;;;;;;;;;;;;;;;;;;2056798;28;19922;-88
2022/06/10 02:56:20;;;;;;;;;;;;;;;;;;2055319;28;19920;-89
2022/06/10 02:57:23;;;;;;;;;;;;;;;;;;2048712;28;19925;-89
2022/06/10 03:01:13;;;;;;;;;;;;;;;;;;2058248;28;19914;-88
2022/06/10 03:02:22;;;;;;;;;;;;;;;;;;2056958;28;19914;-88
2022/06/10 03:03:41;;;;;;;;;;;;;;;;;;2057171;28;20367;-88
2022/06/10 03:04:41;;;;;;;;;;;;;;;;;;2057087;28;20379;-88
2022/06/10 03:05:57;;;;;;;;;;;;;;;;;;2048357;29;19923;-88
2022/06/10 03:07:12;;;;;;;;;;;;;;;;;;2050564;28;19910;-86
2022/06/10 03:08:23;;;;;;;;;;;;;;;;;;2056688;28;19941;-82
2022/06/10 03:09:42;;;;;;;;;;;;;;;;;;2057041;28;20004;-87
2022/06/10 03:10:48;;;;;;;;;;;;;;;;;;2048779;29;19929;-89
2022/06/10 03:11:52;;;;;;;;;;;;;;;;;;2049551;28;19914;-84
2022/06/10 03:13:13;;;;;;;;;;;;;;;;;;2048566;29;20410;-90
2022/06/10 03:14:13;;;;;;;;;;;;;;;;;;2051615;28;19957;-89
2022/06/10 03:15:32;;;;;;;;;;;;;;;;;;2048887;29;19915;-89
2022/06/10 03:16:32;;;;;;;;;;;;;;;;;;2051136;28;19974;-89
2022/06/10 03:17:40;;;;;;;;;;;;;;;;;;2048547;29;20356;-90
2022/06/10 03:19:00;;;;;;;;;;;;;;;;;;2049524;28;19946;-90
2022/06/10 03:20:05;;;;;;;;;;;;;;;;;;2056811;28;20004;-89
2022/06/10 03:21:08;;;;;;;;;;;;;;;;;;2048756;29;20353;-89
2022/06/10 03:22:08;;;;;;;;;;;;;;;;;;2049129;28;19971;-88
2022/06/10 03:23:14;;;;;;;;;;;;;;;;;;2048670;29;20364;-88
2022/06/10 03:24:27;;;;;;;;;;;;;;;;;;2049433;28;20431;-89
2022/06/10 03:25:47;;;;;;;;;;;;;;;;;;2057155;28;19914;-88
2022/06/10 03:26:59;;;;;;;;;;;;;;;;;;2048070;29;19915;-88
2022/06/10 03:28:14;;;;;;;;;;;;;;;;;;2042066;29;19990;-88
2022/06/10 03:29:18;;;;;;;;;;;;;;;;;;2050582;28;19929;-88
2022/06/10 03:30:21;;;;;;;;;;;;;;;;;;2048644;28;19914;-88
2022/06/10 03:31:32;;;;;;;;;;;;;;;;;;2049640;28;19914;-90
2022/06/10 03:32:32;;;;;;;;;;;;;;;;;;2058758;28;20446;-87
2022/06/10 03:33:42;;;;;;;;;;;;;;;;;;2058445;28;19941;-88
2022/06/10 03:34:45;;;;;;;;;;;;;;;;;;2061062;28;20438;-88
2022/06/10 03:35:48;;;;;;;;;;;;;;;;;;2058774;28;20334;-90
2022/06/10 03:36:49;;;;;;;;;;;;;;;;;;2058561;28;20014;-88
2022/06/10 03:37:50;;;;;;;;;;;;;;;;;;2050254;29;19918;-88
2022/06/10 03:38:51;;;;;;;;;;;;;;;;;;2042171;29;20391;-90
2022/06/10 03:39:53;;;;;;;;;;;;;;;;;;2050290;29;19993;-89
2022/06/10 03:40:55;;;;;;;;;;;;;;;;;;2058362;28;19914;-88
2022/06/10 03:42:00;;;;;;;;;;;;;;;;;;2058430;28;19924;-88
2022/06/10 03:43:02;;;;;;;;;;;;;;;;;;2058774;28;20371;-89
2022/06/10 03:44:06;;;;;;;;;;;;;;;;;;2050112;29;20289;-89
2022/06/10 03:45:06;;;;;;;;;;;;;;;;;;2042514;29;19951;-90
2022/06/10 03:46:09;;;;;;;;;;;;;;;;;;2050254;29;19993;-89
2022/06/10 03:47:12;;;;;;;;;;;;;;;;;;2058355;28;19918;-89
2022/06/10 03:48:14;;;;;;;;;;;;;;;;;;2050035;29;19915;-88
2022/06/10 03:49:16;;;;;;;;;;;;;;;;;;2050278;28;19914;-87
2022/06/10 03:50:18;;;;;;;;;;;;;;;;;;2058399;28;19941;-88
2022/06/10 03:51:19;;;;;;;;;;;;;;;;;;2058647;28;20331;-87
2022/06/10 03:52:20;;;;;;;;;;;;;;;;;;2049816;29;19918;-88
2022/06/10 03:53:23;;;;;;;;;;;;;;;;;;2050150;28;19929;-90
2022/06/10 03:54:23;;;;;;;;;;;;;;;;;;2058419;28;19914;-88
2022/06/10 03:55:23;;;;;;;;;;;;;;;;;;2058404;28;20319;-89
2022/06/10 03:56:24;;;;;;;;;;;;;;;;;;2058456;28;19914;-87
2022/06/10 03:57:24;;;;;;;;;;;;;;;;;;2059073;28;19914;-89
2022/06/10 03:58:24;;;;;;;;;;;;;;;;;;2059601;28;19940;-88
2022/06/10 03:59:25;;;;;;;;;;;;;;;;;;2049953;29;20024;-89
2022/06/10 04:00:27;;;;;;;;;;;;;;;;;;2041862;29;19923;-91
2022/06/10 04:01:34;;;;;;;;;;;;;;;;;;2050292;28;19961;-89
2022/06/10 04:02:35;;;;;;;;;;;;;;;;;;2058299;28;19914;-89
2022/06/10 04:03:35;;;;;;;;;;;;;;;;;;2049955;29;19914;-88
2022/06/10 04:04:35;;;;;;;;;;;;;;;;;;2049987;29;20360;-89
2022/06/10 04:05:36;;;;;;;;;;;;;;;;;;2050079;29;20008;-90
2022/06/10 04:06:36;;;;;;;;;;;;;;;;;;2050026;29;19915;-90
2022/06/10 04:07:37;;;;;;;;;;;;;;;;;;2049980;29;20367;-89
2022/06/10 04:08:39;;;;;;;;;;;;;;;;;;2050042;29;19969;-88
2022/06/10 04:09:39;;;;;;;;;;;;;;;;;;2049959;29;20005;-88
2022/06/10 04:10:40;;;;;;;;;;;;;;;;;;2050052;29;19914;-88
2022/06/10 04:11:43;;;;;;;;;;;;;;;;;;2049750;29;20081;-88
2022/06/10 04:12:43;;;;;;;;;;;;;;;;;;2042198;29;19922;-89
2022/06/10 04:13:44;;;;;;;;;;;;;;;;;;2049935;29;19984;-87
2022/06/10 04:14:44;;;;;;;;;;;;;;;;;;2058396;28;19925;-88
2022/06/10 04:15:45;;;;;;;;;;;;;;;;;;2058387;28;19941;-88
2022/06/10 04:16:45;;;;;;;;;;;;;;;;;;2058344;28;19954;-89
2022/06/10 04:17:47;;;;;;;;;;;;;;;;;;2058389;28;19984;-89
2022/06/10 04:18:47;;;;;;;;;;;;;;;;;;2058396;28;19921;-88
2022/06/10 04:19:47;;;;;;;;;;;;;;;;;;2049947;29;20392;-89
2022/06/10 04:20:47;;;;;;;;;;;;;;;;;;2041980;29;19915;-89
2022/06/10 04:21:48;;;;;;;;;;;;;;;;;;2049844;29;19915;-88
2022/06/10 04:22:48;;;;;;;;;;;;;;;;;;2057886;28;20271;-87
2022/06/10 04:23:51;;;;;;;;;;;;;;;;;;2057847;28;19949;-88
2022/06/10 04:24:51;;;;;;;;;;;;;;;;;;2058485;28;19914;-87
2022/06/10 04:25:53;;;;;;;;;;;;;;;;;;2049795;29;19923;-86
2022/06/10 04:26:54;;;;;;;;;;;;;;;;;;2042095;29;19974;-88
2022/06/10 04:27:54;;;;;;;;;;;;;;;;;;2041789;29;19926;-89
2022/06/10 04:28:54;;;;;;;;;;;;;;;;;;2041841;29;19929;-88
2022/06/10 04:29:55;;;;;;;;;;;;;;;;;;2049798;29;19942;-89
2022/06/10 04:30:55;;;;;;;;;;;;;;;;;;2058386;28;19926;-89
2022/06/10 04:31:56;;;;;;;;;;;;;;;;;;2058237;28;19925;-88
2022/06/10 04:32:57;;;;;;;;;;;;;;;;;;2057919;28;20359;-88
2022/06/10 04:33:57;;;;;;;;;;;;;;;;;;2049768;29;19969;-87
2022/06/10 04:34:57;;;;;;;;;;;;;;;;;;2049994;29;19997;-88
2022/06/10 04:35:57;;;;;;;;;;;;;;;;;;2049308;29;19914;-88
2022/06/10 04:36:58;;;;;;;;;;;;;;;;;;2041774;29;19915;-88
2022/06/10 04:37:58;;;;;;;;;;;;;;;;;;2049613;29;19941;-89
2022/06/10 04:38:58;;;;;;;;;;;;;;;;;;2049469;29;19915;-89
2022/06/10 04:39:58;;;;;;;;;;;;;;;;;;2049427;29;19922;-88
2022/06/10 04:40:59;;;;;;;;;;;;;;;;;;2049585;29;19957;-87
2022/06/10 04:41:59;;;;;;;;;;;;;;;;;;2049668;28;19918;-88
2022/06/10 04:42:59;;;;;;;;;;;;;;;;;;2058042;28;19922;-88
2022/06/10 04:44:00;;;;;;;;;;;;;;;;;;2058045;28;19926;-88
2022/06/10 04:45:00;;;;;;;;;;;;;;;;;;2057957;28;19957;-88
2022/06/10 04:46:01;;;;;;;;;;;;;;;;;;2057946;28;19914;-88
2022/06/10 04:47:02;;;;;;;;;;;;;;;;;;2049357;29;19918;-87
2022/06/10 04:48:03;;;;;;;;;;;;;;;;;;2049535;28;19922;-86
2022/06/10 04:49:03;;;;;;;;;;;;;;;;;;2057950;28;19925;-90
2022/06/10 04:50:04;;;;;;;;;;;;;;;;;;2057953;28;19922;-87
2022/06/10 04:51:04;;;;;;;;;;;;;;;;;;2058161;28;19997;-88
2022/06/10 04:52:07;;;;;;;;;;;;;;;;;;2049097;29;20318;-87
2022/06/10 04:53:08;;;;;;;;;;;;;;;;;;2049588;28;19926;-86
2022/06/10 04:54:10;;;;;;;;;;;;;;;;;;2058096;28;20364;-87
2022/06/10 04:55:10;;;;;;;;;;;;;;;;;;2058029;28;19914;-87
2022/06/10 04:56:10;;;;;;;;;;;;;;;;;;2058081;28;20016;-87
2022/06/10 04:57:11;;;;;;;;;;;;;;;;;;2057813;28;19922;-87
2022/06/10 04:58:12;;;;;;;;;;;;;;;;;;2058198;28;19941;-87
2022/06/10 04:59:12;;;;;;;;;;;;;;;;;;2057979;28;19918;-87
2022/06/10 05:00:19;;;;;;;;;;;;;;;;;;2049404;29;19925;-88
2022/06/10 05:01:19;;;;;;;;;;;;;;;;;;2050440;28;20386;-87
2022/06/10 05:02:19;;;;;;;;;;;;;;;;;;2057903;28;19925;-87
2022/06/10 05:03:20;;;;;;;;;;;;;;;;;;2057601;28;19918;-86
2022/06/10 05:04:20;;;;;;;;;;;;;;;;;;2057440;28;20001;-87
2022/06/10 05:05:21;;;;;;;;;;;;;;;;;;2049399;29;19915;-88
2022/06/10 05:06:22;;;;;;;;;;;;;;;;;;2049665;28;20033;-89
2022/06/10 05:07:22;;;;;;;;;;;;;;;;;;2049416;29;19918;-88
2022/06/10 05:08:22;;;;;;;;;;;;;;;;;;2049524;29;20395;-86
2022/06/10 05:09:23;;;;;;;;;;;;;;;;;;2057644;28;20295;-88
2022/06/10 05:10:31;;;;;;;;;;;;;;;;;;2057519;28;19914;-90
2022/06/10 05:11:31;;;;;;;;;;;;;;;;;;2049158;29;19914;-90
2022/06/10 05:12:31;;;;;;;;;;;;;;;;;;2042022;29;20375;-87
2022/06/10 05:13:31;;;;;;;;;;;;;;;;;;2049185;29;19962;-87
2022/06/10 05:14:32;;;;;;;;;;;;;;;;;;2057610;28;19984;-88
2022/06/10 05:15:32;;;;;;;;;;;;;;;;;;2057608;28;19972;-88
2022/06/10 05:16:32;;;;;;;;;;;;;;;;;;2049092;29;20306;-87
2022/06/10 05:17:35;;;;;;;;;;;;;;;;;;2049186;29;19922;-87
2022/06/10 05:18:35;;;;;;;;;;;;;;;;;;2057744;28;20339;-87
2022/06/10 05:19:37;;;;;;;;;;;;;;;;;;2057841;28;19918;-88
2022/06/10 05:20:40;;;;;;;;;;;;;;;;;;2049377;29;20013;-87
2022/06/10 05:21:40;;;;;;;;;;;;;;;;;;2041336;29;19925;-88
2022/06/10 05:22:40;;;;;;;;;;;;;;;;;;2049217;29;20012;-87
2022/06/10 05:23:44;;;;;;;;;;;;;;;;;;2057101;28;19960;-87
2022/06/10 05:24:47;;;;;;;;;;;;;;;;;;2057394;28;19918;-87
2022/06/10 05:25:48;;;;;;;;;;;;;;;;;;2057938;28;20383;-88
2022/06/10 05:26:48;;;;;;;;;;;;;;;;;;2057807;28;19914;-88
2022/06/10 05:27:49;;;;;;;;;;;;;;;;;;2048897;29;19915;-87
2022/06/10 05:28:57;;;;;;;;;;;;;;;;;;2048978;29;19919;-91
2022/06/10 05:29:57;;;;;;;;;;;;;;;;;;2057601;28;19955;-87
2022/06/10 05:30:57;;;;;;;;;;;;;;;;;;2057455;28;19914;-86
2022/06/10 05:31:57;;;;;;;;;;;;;;;;;;2057425;28;19997;-87
2022/06/10 05:32:59;;;;;;;;;;;;;;;;;;2057689;28;19922;-87
2022/06/10 05:35:18;;;;;;;;;;;;;;;;;;2057745;28;19914;-87
2022/06/10 05:36:20;;;;;;;;;;;;;;;;;;2048951;29;19914;-87
2022/06/10 05:37:22;;;;;;;;;;;;;;;;;;2048970;29;19924;-87
2022/06/10 05:38:22;;;;;;;;;;;;;;;;;;2049425;28;20415;-87
2022/06/10 05:39:22;;;;;;;;;;;;;;;;;;2057597;28;19914;-87
2022/06/10 05:40:24;;;;;;;;;;;;;;;;;;2057490;28;19914;-87
2022/06/10 05:42:44;;;;;;;;;;;;;;;;;;2057594;28;19914;-86
2022/06/10 05:43:44;;;;;;;;;;;;;;;;;;2057340;28;19949;-88
2022/06/10 05:44:45;;;;;;;;;;;;;;;;;;2057388;28;19929;-87
2022/06/10 05:45:46;;;;;;;;;;;;;;;;;;2057331;28;19914;-86
2022/06/10 05:46:46;;;;;;;;;;;;;;;;;;2057503;28;19914;-87
2022/06/10 05:47:48;;;;;;;;;;;;;;;;;;2057364;28;19925;-87
2022/06/10 05:48:48;;;;;;;;;;;;;;;;;;2048723;29;19918;-87
2022/06/10 05:49:52;;;;;;;;;;;;;;;;;;2049161;29;19922;-87
2022/06/10 05:50:52;;;;;;;;;;;;;;;;;;2057624;28;20001;-86
2022/06/10 05:51:53;;;;;;;;;;;;;;;;;;2057717;28;20110;-86
2022/06/10 05:52:54;;;;;;;;;;;;;;;;;;2057560;28;19914;-87
2022/06/10 05:53:54;;;;;;;;;;;;;;;;;;2057201;28;20340;-87
2022/06/10 05:54:56;;;;;;;;;;;;;;;;;;2057611;28;19971;-89
2022/06/10 05:55:56;;;;;;;;;;;;;;;;;;2057705;28;19914;-87
2022/06/10 05:56:56;;;;;;;;;;;;;;;;;;2057124;28;20409;-87
2022/06/10 05:57:56;;;;;;;;;;;;;;;;;;2048801;29;19958;-87
2022/06/10 05:58:57;;;;;;;;;;;;;;;;;;2049098;29;20368;-87
2022/06/10 05:59:57;;;;;;;;;;;;;;;;;;2057045;28;20012;-87
2022/06/10 06:00:58;;;;;;;;;;;;;;;;;;2057205;28;19914;-87
2022/06/10 06:01:58;;;;;;;;;;;;;;;;;;2057569;28;20260;-87
2022/06/10 06:03:01;;;;;;;;;;;;;;;;;;2057705;28;19919;-87
2022/06/10 06:04:01;;;;;;;;;;;;;;;;;;2049107;29;19922;-87
2022/06/10 06:05:02;;;;;;;;;;;;;;;;;;2049202;29;20293;-86
2022/06/10 06:06:02;;;;;;;;;;;;;;;;;;2057557;28;19918;-86
2022/06/10 06:07:03;;;;;;;;;;;;;;;;;;2057439;28;20367;-87
2022/06/10 06:08:04;;;;;;;;;;;;;;;;;;2057073;28;19961;-88
2022/06/10 06:09:04;;;;;;;;;;;;;;;;;;2057418;28;20347;-88
2022/06/10 06:10:05;;;;;;;;;;;;;;;;;;2057473;28;19921;-87
2022/06/10 06:11:05;;;;;;;;;;;;;;;;;;2057422;28;19914;-90
2022/06/10 06:12:06;;;;;;;;;;;;;;;;;;2057488;28;19914;-86
2022/06/10 06:13:06;;;;;;;;;;;;;;;;;;2057411;28;19918;-86
2022/06/10 06:14:07;;;;;;;;;;;;;;;;;;2057410;28;20005;-87
2022/06/10 06:15:07;;;;;;;;;;;;;;;;;;2057553;28;19933;-89
2022/06/10 06:16:09;;;;;;;;;;;;;;;;;;2057419;28;20012;-89
2022/06/10 06:17:10;;;;;;;;;;;;;;;;;;2057446;28;19925;-89
2022/06/10 06:18:10;;;;;;;;;;;;;;;;;;2057469;28;20005;-87
2022/06/10 06:19:11;;;;;;;;;;;;;;;;;;2057500;28;20320;-87
2022/06/10 06:20:13;;;;;;;;;;;;;;;;;;2048960;29;19930;-85
2022/06/10 06:21:14;;;;;;;;;;;;;;;;;;2041070;29;19938;-85
2022/06/10 06:22:14;;;;;;;;;;;;;;;;;;2048572;29;20340;-86
2022/06/10 06:23:14;;;;;;;;;;;;;;;;;;2056814;28;19918;-86
2022/06/10 06:24:15;;;;;;;;;;;;;;;;;;2048704;29;20295;-86
2022/06/10 06:25:16;;;;;;;;;;;;;;;;;;2040888;29;20063;-87
2022/06/10 06:26:16;;;;;;;;;;;;;;;;;;2048997;28;19914;-87
2022/06/10 06:27:17;;;;;;;;;;;;;;;;;;2057359;28;20432;-87
2022/06/10 06:28:17;;;;;;;;;;;;;;;;;;2057161;28;20024;-85
2022/06/10 06:29:18;;;;;;;;;;;;;;;;;;2057276;28;20016;-87
2022/06/10 06:30:26;;;;;;;;;;;;;;;;;;2057361;28;19914;-86
2022/06/10 06:31:26;;;;;;;;;;;;;;;;;;2048969;29;20013;-86
2022/06/10 06:32:27;;;;;;;;;;;;;;;;;;2049064;29;20248;-86
2022/06/10 06:33:27;;;;;;;;;;;;;;;;;;2048571;29;20359;-88
2022/06/10 06:34:28;;;;;;;;;;;;;;;;;;2040815;29;20348;-87
2022/06/10 06:35:28;;;;;;;;;;;;;;;;;;2040591;29;20291;-86
2022/06/10 06:36:34;;;;;;;;;;;;;;;;;;2040829;29;19973;-87
2022/06/10 06:37:35;;;;;;;;;;;;;;;;;;2049655;28;20319;-88
2022/06/10 06:38:35;;;;;;;;;;;;;;;;;;2057039;28;19996;-87
2022/06/10 06:39:35;;;;;;;;;;;;;;;;;;2056973;28;19968;-87
2022/06/10 06:40:36;;;;;;;;;;;;;;;;;;2057235;28;19949;-87
2022/06/10 06:41:36;;;;;;;;;;;;;;;;;;2048586;29;19973;-87
2022/06/10 06:42:39;;;;;;;;;;;;;;;;;;2048689;29;20352;-89
2022/06/10 06:43:39;;;;;;;;;;;;;;;;;;2048357;28;19921;-86
2022/06/10 06:44:40;;;;;;;;;;;;;;;;;;2049092;29;20382;-87
2022/06/10 06:45:42;;;;;;;;;;;;;;;;;;2057395;28;19914;-87
2022/06/10 06:46:43;;;;;;;;;;;;;;;;;;2048815;29;19918;-87
2022/06/10 06:47:44;;;;;;;;;;;;;;;;;;2048751;28;20013;-87
2022/06/10 06:48:44;;;;;;;;;;;;;;;;;;2057341;28;19914;-87
2022/06/10 06:49:45;;;;;;;;;;;;;;;;;;2048605;29;19928;-87
2022/06/10 06:50:47;;;;;;;;;;;;;;;;;;2040806;29;19958;-87
2022/06/10 06:51:48;;;;;;;;;;;;;;;;;;2049174;28;19922;-87
2022/06/10 06:52:49;;;;;;;;;;;;;;;;;;2057188;28;19980;-86
2022/06/10 06:53:50;;;;;;;;;;;;;;;;;;2048665;29;20143;-86
2022/06/10 06:54:50;;;;;;;;;;;;;;;;;;2048804;29;19954;-86
2022/06/10 06:55:50;;;;;;;;;;;;;;;;;;2057172;28;19914;-87
2022/06/10 06:56:53;;;;;;;;;;;;;;;;;;2057236;28;19914;-88
2022/06/10 06:57:53;;;;;;;;;;;;;;;;;;2057045;28;20283;-88
2022/06/10 06:58:54;;;;;;;;;;;;;;;;;;2056965;28;19945;-88
2022/06/10 07:00:02;;;;;;;;;;;;;;;;;;2057224;28;19921;-88
2022/06/10 07:01:03;;;;;;;;;;;;;;;;;;2059935;28;20390;-89
2022/06/10 07:02:03;;;;;;;;;;;;;;;;;;2056951;28;20013;-88
2022/06/10 07:03:06;;;;;;;;;;;;;;;;;;2057373;28;19918;-89
2022/06/10 07:04:07;;;;;;;;;;;;;;;;;;2048394;29;19953;-89
2022/06/10 07:05:07;;;;;;;;;;;;;;;;;;2048595;28;20095;-88
2022/06/10 07:06:08;;;;;;;;;;;;;;;;;;2057662;28;19926;-88
2022/06/10 07:07:08;;;;;;;;;;;;;;;;;;2058550;28;19914;-88
2022/06/10 07:08:09;;;;;;;;;;;;;;;;;;2058730;28;19914;-88
2022/06/10 07:09:09;;;;;;;;;;;;;;;;;;2058815;28;19977;-88
2022/06/10 07:10:14;;;;;;;;;;;;;;;;;;2050130;29;20402;-88
2022/06/10 07:11:14;;;;;;;;;;;;;;;;;;2042910;29;20017;-87
2022/06/10 07:12:15;;;;;;;;;;;;;;;;;;2042492;29;19915;-90
2022/06/10 07:13:16;;;;;;;;;;;;;;;;;;2050344;29;19994;-91
2022/06/10 07:14:17;;;;;;;;;;;;;;;;;;2058859;28;19918;-91
2022/06/10 07:15:21;;;;;;;;;;;;;;;;;;2058757;28;19918;-91
2022/06/10 07:16:21;;;;;;;;;;;;;;;;;;2058850;28;19914;-90
2022/06/10 07:17:21;;;;;;;;;;;;;;;;;;2058801;28;19918;-90
2022/06/10 07:18:21;;;;;;;;;;;;;;;;;;2058794;28;19918;-89